createdAt,value
2023-03-06T00:03:37.790Z,16.92
2023-03-06T00:08:39.383Z,18.45
2023-03-06T00:13:41.219Z,20.02
2023-03-06T00:18:42.782Z,15.13
2023-03-06T00:23:44.321Z,16.98
2023-03-06T00:28:46.079Z,16.40
2023-03-06T00:33:47.674Z,13.80
2023-03-06T00:38:49.390Z,18.00
2023-03-06T00:43:52.360Z,16.15
2023-03-06T00:48:53.959Z,16.15
2023-03-06T00:53:55.895Z,18.55
2023-03-06T00:58:59.023Z,19.52
2023-03-06T01:04:00.575Z,15.73
2023-03-06T01:09:02.314Z,18.40
2023-03-06T01:14:03.998Z,22.50
2023-03-06T01:19:05.674Z,23.20
2023-03-06T01:24:08.556Z,20.20
2023-03-06T01:29:10.175Z,24.60
2023-03-06T01:34:11.947Z,22.77
2023-03-06T01:39:13.565Z,27.13
2023-03-06T01:44:16.207Z,22.88
2023-03-06T01:49:38.078Z,20.08
2023-03-06T01:54:48.233Z,21.30
2023-03-06T01:59:55.636Z,25.33
2023-03-06T02:05:00.580Z,25.67
2023-03-06T02:10:02.195Z,27.15
2023-03-06T02:15:04.530Z,21.95
2023-03-06T02:20:16.117Z,25.42
2023-03-06T02:25:23.873Z,25.30
2023-03-06T02:30:28.154Z,32.13
2023-03-06T02:35:35.477Z,26.10
2023-03-06T02:40:37.539Z,26.77
2023-03-06T02:45:42.738Z,22.52
2023-03-06T02:50:45.684Z,22.58
2023-03-06T02:55:47.878Z,25.50
2023-03-06T03:00:51.155Z,26.13
2023-03-06T03:05:54.528Z,29.88
2023-03-06T03:11:01.517Z,28.02
2023-03-06T03:16:12.394Z,27.45
2023-03-06T03:21:15.776Z,31.73
2023-03-06T03:26:19.920Z,30.80
2023-03-06T03:31:28.223Z,31.38
2023-03-06T03:36:29.872Z,30.85
2023-03-06T03:41:33.556Z,35.95
2023-03-06T03:46:39.650Z,28.85
2023-03-06T03:51:46.037Z,34.53
2023-03-06T03:56:48.095Z,37.28
2023-03-06T04:01:58.452Z,32.13
2023-03-06T04:07:00.324Z,36.13
2023-03-06T04:12:02.000Z,35.92
2023-03-06T04:17:05.216Z,36.45
2023-03-06T04:22:06.826Z,36.58
2023-03-06T04:27:11.336Z,33.92
2023-03-06T04:32:13.984Z,36.67
2023-03-06T04:37:21.377Z,34.60
2023-03-06T04:42:23.900Z,29.35
2023-03-06T04:47:25.441Z,38.47
2023-03-06T04:52:26.971Z,32.47
2023-03-06T04:57:28.516Z,35.75
2023-03-06T05:02:30.341Z,34.80
2023-03-06T05:07:31.945Z,32.33
2023-03-06T05:12:36.645Z,37.55
2023-03-06T05:17:38.904Z,39.20
2023-03-06T05:22:40.671Z,42.38
2023-03-06T05:27:42.715Z,36.58
2023-03-06T05:32:44.624Z,32.53
2023-03-06T05:37:47.120Z,33.70
2023-03-06T05:42:49.004Z,31.80
2023-03-06T05:47:50.540Z,35.13
2023-03-06T05:52:52.060Z,35.75
2023-03-06T05:57:53.866Z,35.63
2023-03-06T06:02:55.561Z,35.25
2023-03-06T06:07:57.142Z,39.92
2023-03-06T06:12:58.745Z,38.90
2023-03-06T06:18:00.311Z,34.03
2023-03-06T06:23:01.862Z,36.25
2023-03-06T06:28:03.885Z,40.25
2023-03-06T06:33:05.412Z,40.67
2023-03-06T06:38:07.234Z,40.58
2023-03-06T06:43:08.919Z,39.80
2023-03-06T06:48:10.783Z,33.00
2023-03-06T06:53:12.284Z,36.97
2023-03-06T06:58:14.976Z,33.90
2023-03-06T07:03:17.093Z,35.65
2023-03-06T07:08:18.640Z,33.47
2023-03-06T07:13:20.282Z,36.03
2023-03-06T07:18:21.970Z,32.80
2023-03-06T07:23:24.833Z,33.95
2023-03-06T07:28:26.868Z,34.97
2023-03-06T07:33:28.480Z,37.35
2023-03-06T07:38:30.300Z,37.40
2023-03-06T07:43:32.185Z,37.63
2023-03-06T07:48:37.800Z,34.05
2023-03-06T07:53:39.528Z,32.55
2023-03-06T07:58:44.346Z,34.05
2023-03-06T08:03:46.259Z,30.88
2023-03-06T08:08:48.905Z,27.02
2023-03-06T08:13:51.012Z,25.67
2023-03-06T08:18:53.358Z,28.40
2023-03-06T08:23:55.362Z,32.13
2023-03-06T08:28:58.600Z,31.42
2023-03-06T08:34:03.442Z,30.00
2023-03-06T08:39:05.835Z,30.25
2023-03-06T08:44:08.140Z,30.70
2023-03-06T08:49:12.736Z,29.23
2023-03-06T08:54:14.809Z,26.08
2023-03-06T08:59:16.402Z,26.02
2023-03-06T09:04:18.035Z,14.43
2023-03-06T09:09:19.678Z,12.63
2023-03-06T09:14:21.225Z,13.82
2023-03-06T09:19:22.868Z,16.45
2023-03-06T09:24:24.490Z,17.52
2023-03-06T09:29:26.262Z,17.52
2023-03-06T09:34:27.947Z,17.48
2023-03-06T09:39:29.485Z,17.58
2023-03-06T09:44:34.131Z,17.75
2023-03-06T09:49:59.952Z,20.38
2023-03-06T09:55:04.749Z,22.02
2023-03-06T10:00:16.418Z,20.50
2023-03-06T10:05:25.958Z,24.30
2023-03-06T10:10:40.889Z,23.23
2023-03-06T10:15:44.958Z,24.05
2023-03-06T10:20:53.484Z,26.90
2023-03-06T10:26:38.438Z,17.90
2023-03-06T10:31:43.470Z,22.58
2023-03-06T10:36:45.068Z,19.92
2023-03-06T10:41:48.037Z,21.83
2023-03-06T10:46:52.215Z,22.23
2023-03-06T10:51:59.662Z,23.70
2023-03-06T10:57:28.718Z,20.83
2023-03-06T11:02:38.624Z,18.30
2023-03-06T11:07:56.799Z,19.70
2023-03-06T11:13:04.169Z,19.95
2023-03-06T11:18:08.749Z,22.33
2023-03-06T11:23:24.592Z,22.17
2023-03-06T11:28:38.441Z,24.73
2023-03-06T11:33:48.645Z,19.70
2023-03-06T11:38:53.044Z,19.85
2023-03-06T11:44:32.502Z,25.05
2023-03-06T11:49:41.515Z,22.73
2023-03-06T11:54:43.265Z,25.00
2023-03-06T12:00:07.598Z,22.85
2023-03-06T12:05:38.219Z,22.15
2023-03-06T12:10:51.805Z,20.48
2023-03-06T12:16:21.655Z,26.08
2023-03-06T12:21:51.074Z,23.27
2023-03-06T12:27:10.675Z,22.98
2023-03-06T12:32:33.815Z,21.98
2023-03-06T12:37:52.566Z,22.40
2023-03-06T12:43:18.975Z,18.08
2023-03-06T12:48:28.620Z,12.07
2023-03-06T12:53:32.867Z,14.98
2023-03-06T12:58:41.989Z,16.35
2023-03-06T13:04:02.570Z,14.00
2023-03-06T13:10:02.537Z,13.38
2023-03-06T13:15:33.573Z,10.65
2023-03-06T13:20:40.857Z,8.63
2023-03-06T13:25:50.611Z,10.00
2023-03-06T13:30:53.280Z,13.05
2023-03-06T13:35:56.972Z,8.85
2023-03-06T13:41:20.407Z,18.90
2023-03-06T13:46:34.491Z,11.90
2023-03-06T13:51:41.811Z,16.83
2023-03-06T13:57:07.890Z,20.42
2023-03-06T14:02:27.824Z,15.95
2023-03-06T14:07:31.728Z,18.08
2023-03-06T14:12:37.606Z,15.90
2023-03-06T14:17:46.068Z,13.00
2023-03-06T14:22:47.931Z,16.98
2023-03-06T14:27:52.024Z,18.58
2023-03-06T14:32:55.984Z,24.00
2023-03-06T14:38:03.886Z,19.50
2023-03-06T14:43:26.542Z,18.02
2023-03-06T14:48:38.877Z,14.52
2023-03-06T14:53:40.624Z,15.55
2023-03-06T14:58:51.190Z,14.68
2023-03-06T15:03:56.690Z,17.58
2023-03-06T15:09:06.546Z,18.15
2023-03-06T15:14:18.877Z,19.27
2023-03-06T15:19:22.535Z,27.98
2023-03-06T15:24:36.862Z,27.55
2023-03-06T15:29:38.717Z,22.02
2023-03-06T15:34:40.367Z,26.00
2023-03-06T15:39:42.287Z,23.75
2023-03-06T15:44:47.781Z,17.80
2023-03-06T15:49:49.733Z,18.90
2023-03-06T15:54:51.607Z,19.20
2023-03-06T15:59:53.915Z,19.10
2023-03-06T16:04:55.526Z,22.92
2023-03-06T16:09:57.124Z,26.60
2023-03-06T16:15:21.210Z,25.15
2023-03-06T16:20:25.200Z,24.02
2023-03-06T16:25:28.197Z,23.55
2023-03-06T16:30:31.957Z,24.00
2023-03-06T16:35:33.579Z,25.48
2023-03-06T16:40:38.738Z,27.35
2023-03-06T16:45:41.620Z,28.75
2023-03-06T16:50:43.474Z,26.73
2023-03-06T16:55:45.370Z,24.83
2023-03-06T17:00:47.017Z,24.52
2023-03-06T17:05:48.591Z,23.63
2023-03-06T17:10:50.352Z,27.30
2023-03-06T17:15:54.930Z,26.70
2023-03-06T17:20:57.342Z,27.83
2023-03-06T17:26:18.970Z,31.92
2023-03-06T17:31:24.054Z,26.58
2023-03-06T17:36:26.525Z,22.52
2023-03-06T17:41:28.272Z,27.30
2023-03-06T17:46:30.101Z,23.98
2023-03-06T17:51:31.632Z,26.23
2023-03-06T17:56:33.274Z,26.33
2023-03-06T18:01:34.964Z,29.13
2023-03-06T18:06:37.183Z,26.23
2023-03-06T18:11:38.754Z,24.20
2023-03-06T18:16:40.419Z,28.42
2023-03-06T18:21:42.312Z,25.15
2023-03-06T18:26:44.039Z,27.20
2023-03-06T18:31:45.749Z,26.35
2023-03-06T18:36:47.355Z,28.15
2023-03-06T18:41:48.994Z,29.25
2023-03-06T18:46:50.786Z,28.70
2023-03-06T18:51:52.570Z,25.73
2023-03-06T18:56:54.345Z,33.33
2023-03-06T19:01:55.931Z,39.95
2023-03-06T19:06:57.485Z,32.38
2023-03-06T19:11:59.671Z,29.15
2023-03-06T19:17:01.294Z,25.17
2023-03-06T19:22:02.826Z,31.73
2023-03-06T19:27:04.441Z,27.70
2023-03-06T19:32:06.485Z,29.67
2023-03-06T19:37:08.085Z,29.45
2023-03-06T19:42:09.658Z,27.27
2023-03-06T19:47:11.241Z,23.65
2023-03-06T19:52:12.885Z,22.48
2023-03-06T19:57:14.530Z,20.52
2023-03-06T20:02:16.143Z,19.92
2023-03-06T20:07:18.008Z,19.55
2023-03-06T20:12:19.636Z,19.23
2023-03-06T20:17:21.273Z,17.35
2023-03-06T20:22:23.175Z,20.27
2023-03-06T20:27:24.861Z,16.33
2023-03-06T20:32:26.500Z,20.98
2023-03-06T20:37:28.092Z,17.00
2023-03-06T20:42:29.635Z,19.70
2023-03-06T20:47:31.314Z,18.58
2023-03-06T20:52:32.916Z,18.45
2023-03-06T20:57:34.573Z,18.95
2023-03-06T21:02:36.225Z,20.10
2023-03-06T21:07:37.903Z,21.23
2023-03-06T21:12:39.479Z,22.65
2023-03-06T21:17:41.056Z,23.95
2023-03-06T21:22:42.690Z,22.45
2023-03-06T21:27:44.304Z,24.40
2023-03-06T21:32:46.030Z,22.77
2023-03-06T21:37:47.812Z,24.48
2023-03-06T21:42:49.575Z,25.58
2023-03-06T21:47:51.138Z,26.80
2023-03-06T21:52:53.312Z,23.33
2023-03-06T21:57:55.317Z,27.90
2023-03-06T22:02:56.893Z,26.20
2023-03-06T22:07:59.220Z,26.27
2023-03-06T22:13:00.805Z,27.38
2023-03-06T22:18:02.454Z,22.80
2023-03-06T22:23:04.027Z,27.55
2023-03-06T22:28:05.617Z,26.20
2023-03-06T22:33:07.261Z,26.55
2023-03-06T22:38:08.916Z,24.42
2023-03-06T22:43:10.464Z,27.02
2023-03-06T22:48:12.332Z,25.38
2023-03-06T22:53:13.912Z,26.52
2023-03-06T22:58:15.462Z,24.38
2023-03-06T23:03:17.066Z,25.65
2023-03-06T23:08:18.617Z,24.80
2023-03-06T23:13:20.169Z,23.98
2023-03-06T23:18:41.402Z,21.60
2023-03-06T23:24:02.314Z,24.83
2023-03-06T23:29:04.060Z,25.45
2023-03-06T23:34:05.842Z,22.98
2023-03-06T23:39:07.360Z,23.27
2023-03-06T23:44:08.927Z,24.38
2023-03-06T23:49:10.600Z,21.40
2023-03-06T23:54:12.129Z,21.60
2023-03-06T23:59:13.653Z,17.35
